createdAt,value
2023-02-16T00:01:23.149Z,63.12
2023-02-16T00:03:50.886Z,63.33
2023-02-16T00:06:17.751Z,64.07
2023-02-16T00:08:49.116Z,63.95
2023-02-16T00:11:37.277Z,64.19
2023-02-16T00:14:05.251Z,63.87
2023-02-16T00:16:31.687Z,63.77
2023-02-16T00:18:58.090Z,64.37
2023-02-16T00:21:24.472Z,64.75
2023-02-16T00:23:52.281Z,63.99
2023-02-16T00:26:22.846Z,64.33
2023-02-16T00:28:51.905Z,65.14
2023-02-16T00:31:20.879Z,65.46
2023-02-16T00:33:47.569Z,65.25
2023-02-16T00:36:14.127Z,64.67
2023-02-16T00:38:40.921Z,65.66
2023-02-16T00:41:36.173Z,65.62
2023-02-16T00:44:02.880Z,64.82
2023-02-16T00:46:29.578Z,64.39
2023-02-16T00:48:56.061Z,63.76
2023-02-16T00:51:26.070Z,64.76
2023-02-16T00:53:52.718Z,65.49
2023-02-16T00:56:20.760Z,64.83
2023-02-16T00:58:50.484Z,65.14
2023-02-16T01:01:18.739Z,64.70
2023-02-16T01:03:45.214Z,65.79
2023-02-16T01:06:30.597Z,63.97
2023-02-16T01:09:29.857Z,63.84
2023-02-16T01:11:56.902Z,65.09
2023-02-16T01:14:23.268Z,65.28
2023-02-16T01:16:49.660Z,65.28
2023-02-16T01:19:16.062Z,64.57
2023-02-16T01:21:42.421Z,64.24
2023-02-16T01:24:08.981Z,63.99
2023-02-16T01:26:39.759Z,64.50
2023-02-16T01:29:06.291Z,63.83
2023-02-16T01:31:32.948Z,63.78
2023-02-16T01:33:59.410Z,65.06
2023-02-16T01:36:52.798Z,64.85
2023-02-16T01:39:20.741Z,64.71
2023-02-16T01:41:54.956Z,64.81
2023-02-16T01:44:23.724Z,63.34
2023-02-16T01:47:12.253Z,63.98
2023-02-16T01:49:38.678Z,63.58
2023-02-16T01:52:34.358Z,64.18
2023-02-16T01:55:07.761Z,65.44
2023-02-16T01:57:49.370Z,64.24
2023-02-16T02:00:36.715Z,64.51
2023-02-16T02:03:23.268Z,64.92
2023-02-16T02:05:51.057Z,64.26
2023-02-16T02:08:25.914Z,65.06
2023-02-16T02:11:20.096Z,64.57
2023-02-16T02:13:58.720Z,63.12
2023-02-16T02:16:27.463Z,64.02
2023-02-16T02:18:54.336Z,65.21
2023-02-16T02:22:02.403Z,64.07
2023-02-16T02:25:06.131Z,63.90
2023-02-16T02:27:44.961Z,64.01
2023-02-16T02:30:20.638Z,64.04
2023-02-16T02:33:06.617Z,64.77
2023-02-16T02:35:58.385Z,64.41
2023-02-16T02:38:30.608Z,64.86
2023-02-16T02:41:12.267Z,64.37
2023-02-16T02:43:45.830Z,64.53
2023-02-16T02:46:24.630Z,64.64
2023-02-16T02:48:51.383Z,64.47
2023-02-16T02:51:30.609Z,64.04
2023-02-16T02:54:32.910Z,65.33
2023-02-16T02:57:29.752Z,64.04
2023-02-16T03:00:20.346Z,64.48
2023-02-16T03:02:51.368Z,65.31
2023-02-16T03:05:19.439Z,65.65
2023-02-16T03:07:49.317Z,65.45
2023-02-16T03:10:45.460Z,66.48
2023-02-16T03:13:23.708Z,66.56
2023-02-16T03:15:55.891Z,66.50
2023-02-16T03:18:44.539Z,66.04
2023-02-16T03:21:32.387Z,65.90
2023-02-16T03:24:20.009Z,65.33
2023-02-16T03:27:09.242Z,65.84
2023-02-16T03:29:37.810Z,66.04
2023-02-16T03:32:04.882Z,66.38
2023-02-16T03:34:34.657Z,68.01
2023-02-16T03:37:01.302Z,66.57
2023-02-16T03:39:28.771Z,67.06
2023-02-16T03:41:56.541Z,66.35
2023-02-16T03:44:24.700Z,66.85
2023-02-16T03:46:51.488Z,66.28
2023-02-16T03:49:19.155Z,65.64
2023-02-16T03:51:45.789Z,66.15
2023-02-16T03:54:13.016Z,66.09
2023-02-16T03:56:39.535Z,66.06
2023-02-16T03:59:05.950Z,65.27
2023-02-16T04:01:32.347Z,66.01
2023-02-16T04:03:58.737Z,66.99
2023-02-16T04:06:25.089Z,66.70
2023-02-16T04:08:51.502Z,65.63
2023-02-16T04:11:36.598Z,66.55
2023-02-16T04:14:03.039Z,66.20
2023-02-16T04:16:29.550Z,66.49
2023-02-16T04:18:55.887Z,66.20
2023-02-16T04:21:22.212Z,66.09
2023-02-16T04:23:48.547Z,65.65
2023-02-16T04:26:14.879Z,66.03
2023-02-16T04:28:41.212Z,67.07
2023-02-16T04:31:08.138Z,67.29
2023-02-16T04:33:34.606Z,67.31
2023-02-16T04:36:00.952Z,65.56
2023-02-16T04:38:27.333Z,66.53
2023-02-16T04:40:53.714Z,66.88
2023-02-16T04:43:20.116Z,66.59
2023-02-16T04:45:46.520Z,66.94
2023-02-16T04:48:12.989Z,67.02
2023-02-16T04:50:39.460Z,66.84
2023-02-16T04:53:05.956Z,66.29
2023-02-16T04:55:32.534Z,66.43
2023-02-16T04:57:58.870Z,66.46
2023-02-16T05:00:25.647Z,66.13
2023-02-16T05:02:52.135Z,66.31
2023-02-16T05:05:18.569Z,66.43
2023-02-16T05:07:45.005Z,66.69
2023-02-16T05:10:11.381Z,67.88
2023-02-16T05:12:56.228Z,68.07
2023-02-16T05:15:22.562Z,67.98
2023-02-16T05:17:48.978Z,67.69
2023-02-16T05:20:15.621Z,67.64
2023-02-16T05:22:43.395Z,68.38
2023-02-16T05:25:09.793Z,68.32
2023-02-16T05:27:36.169Z,68.43
2023-02-16T05:30:02.823Z,67.95
2023-02-16T05:32:29.280Z,68.67
2023-02-16T05:34:55.606Z,68.34
2023-02-16T05:37:22.191Z,67.74
2023-02-16T05:39:48.598Z,68.44
2023-02-16T05:42:15.709Z,68.31
2023-02-16T05:44:42.107Z,68.66
2023-02-16T05:47:08.529Z,68.98
2023-02-16T05:49:34.938Z,68.35
2023-02-16T05:52:01.365Z,69.08
2023-02-16T05:54:28.120Z,69.04
2023-02-16T05:56:54.716Z,68.89
2023-02-16T05:59:21.327Z,69.55
2023-02-16T06:01:51.225Z,69.31
2023-02-16T06:04:19.494Z,70.16
2023-02-16T06:06:45.883Z,70.84
2023-02-16T06:09:12.286Z,70.67
2023-02-16T06:14:21.141Z,69.91
2023-02-16T06:16:49.979Z,70.77
2023-02-16T06:19:17.977Z,70.84
2023-02-16T06:21:45.070Z,71.33
2023-02-16T06:24:13.378Z,71.30
2023-02-16T06:26:39.791Z,71.23
2023-02-16T06:29:08.512Z,70.86
2023-02-16T06:31:36.764Z,71.27
2023-02-16T06:34:04.230Z,70.97
2023-02-16T06:36:31.148Z,70.69
2023-02-16T06:38:57.491Z,70.34
2023-02-16T06:41:35.784Z,70.41
2023-02-16T06:44:04.901Z,69.96
2023-02-16T06:46:31.436Z,70.34
2023-02-16T06:48:58.007Z,70.65
2023-02-16T06:51:24.712Z,71.42
2023-02-16T06:53:51.094Z,70.18
2023-02-16T06:56:17.479Z,69.79
2023-02-16T06:58:44.082Z,70.25
2023-02-16T07:01:10.612Z,70.03
2023-02-16T07:03:37.102Z,71.19
2023-02-16T07:06:03.946Z,69.95
2023-02-16T07:08:30.305Z,69.56
2023-02-16T07:10:58.171Z,69.95
2023-02-16T07:13:24.587Z,69.79
2023-02-16T07:15:51.083Z,69.83
2023-02-16T07:18:17.723Z,69.65
2023-02-16T07:20:44.103Z,69.57
2023-02-16T07:23:10.429Z,69.66
2023-02-16T07:25:37.258Z,69.66
2023-02-16T07:28:04.380Z,69.27
2023-02-16T07:30:30.888Z,69.28
2023-02-16T07:32:57.790Z,69.17
2023-02-16T07:35:24.193Z,69.59
2023-02-16T07:37:50.670Z,69.33
2023-02-16T07:40:17.148Z,69.69
2023-02-16T07:42:43.498Z,69.44
2023-02-16T07:45:10.003Z,69.54
2023-02-16T07:47:36.475Z,69.76
2023-02-16T07:50:02.908Z,69.96
2023-02-16T07:52:31.174Z,69.97
2023-02-16T07:55:04.649Z,70.08
2023-02-16T07:57:30.992Z,70.15
2023-02-16T07:59:57.672Z,69.67
2023-02-16T08:02:24.345Z,69.97
2023-02-16T08:04:54.188Z,69.66
2023-02-16T08:07:21.229Z,69.28
2023-02-16T08:09:47.787Z,69.36
2023-02-16T08:12:15.292Z,69.23
2023-02-16T08:14:44.050Z,69.61
2023-02-16T08:17:10.452Z,69.39
2023-02-16T08:19:40.215Z,69.25
2023-02-16T08:22:08.016Z,69.45
2023-02-16T08:24:35.469Z,69.54
2023-02-16T08:27:05.567Z,69.77
2023-02-16T08:29:32.887Z,70.14
2023-02-16T08:32:00.125Z,70.39
2023-02-16T08:34:27.265Z,70.58
2023-02-16T08:36:56.453Z,70.89
2023-02-16T08:39:25.952Z,71.07
2023-02-16T08:41:53.866Z,70.73
2023-02-16T08:44:22.344Z,70.85
2023-02-16T08:46:50.292Z,70.51
2023-02-16T08:49:18.729Z,70.13
2023-02-16T08:51:49.670Z,70.23
2023-02-16T08:54:19.101Z,70.39
2023-02-16T08:56:47.919Z,70.63
2023-02-16T08:59:16.718Z,70.70
2023-02-16T09:01:44.303Z,70.64
2023-02-16T09:04:11.702Z,70.90
2023-02-16T09:06:39.775Z,70.48
2023-02-16T09:09:08.586Z,70.26
2023-02-16T09:11:36.113Z,70.38
2023-02-16T09:14:03.864Z,70.65
2023-02-16T09:16:34.637Z,70.51
2023-02-16T09:19:01.792Z,69.92
2023-02-16T09:21:32.405Z,69.63
2023-02-16T09:24:01.894Z,69.35
2023-02-16T09:26:31.778Z,69.63
2023-02-16T09:28:59.180Z,69.70
2023-02-16T09:31:31.429Z,69.33
2023-02-16T09:34:02.260Z,68.64
2023-02-16T09:36:29.133Z,69.34
2023-02-16T09:38:56.332Z,69.46
2023-02-16T09:41:40.847Z,69.38
2023-02-16T09:44:13.282Z,69.49
2023-02-16T09:46:41.957Z,69.77
2023-02-16T09:49:37.025Z,69.36
2023-02-16T09:52:21.317Z,70.72
2023-02-16T09:54:50.312Z,69.29
2023-02-16T09:57:44.232Z,68.66
2023-02-16T10:00:53.346Z,67.61
2023-02-16T10:03:40.350Z,67.96
2023-02-16T10:06:13.514Z,67.90
2023-02-16T10:08:51.208Z,67.30
2023-02-16T10:11:46.497Z,68.00
2023-02-16T10:14:30.740Z,67.80
2023-02-16T10:17:34.541Z,66.83
2023-02-16T10:20:21.391Z,67.21
2023-02-16T10:23:02.780Z,66.80
2023-02-16T10:25:44.228Z,67.03
2023-02-16T10:28:28.812Z,68.07
2023-02-16T10:31:00.899Z,67.72
2023-02-16T10:33:44.606Z,68.08
2023-02-16T10:36:21.559Z,68.16
2023-02-16T10:38:54.635Z,67.58
2023-02-16T10:41:44.166Z,67.15
2023-02-16T10:44:22.344Z,66.60
2023-02-16T10:46:56.709Z,65.24
2023-02-16T10:49:24.789Z,66.43
2023-02-16T10:51:54.193Z,67.44
2023-02-16T10:54:28.366Z,67.49
2023-02-16T10:57:01.018Z,68.47
2023-02-16T10:59:45.212Z,69.74
2023-02-16T11:02:38.454Z,71.65
2023-02-16T11:05:30.985Z,72.18
2023-02-16T11:08:02.231Z,72.05
2023-02-16T11:10:48.912Z,72.35
2023-02-16T11:13:35.875Z,73.05
2023-02-16T11:16:11.020Z,73.20
2023-02-16T11:18:42.689Z,73.74
2023-02-16T11:21:11.440Z,73.62
2023-02-16T11:23:43.441Z,75.00
2023-02-16T11:26:10.051Z,75.13
2023-02-16T11:28:39.398Z,75.08
2023-02-16T11:31:23.182Z,75.45
2023-02-16T11:34:06.040Z,75.83
2023-02-16T11:36:40.444Z,76.02
2023-02-16T11:39:25.015Z,74.67
2023-02-16T11:41:54.581Z,73.94
2023-02-16T11:44:34.274Z,73.19
2023-02-16T11:47:04.080Z,72.85
2023-02-16T11:49:37.428Z,72.08
2023-02-16T11:52:27.176Z,71.62
2023-02-16T11:54:59.933Z,70.77
2023-02-16T11:57:31.767Z,71.50
2023-02-16T12:00:01.563Z,70.26
2023-02-16T12:02:40.722Z,69.78
2023-02-16T12:05:12.926Z,70.31
2023-02-16T12:07:48.462Z,70.16
2023-02-16T12:11:00.026Z,70.48
2023-02-16T12:13:51.971Z,69.96
2023-02-16T12:16:52.248Z,70.30
2023-02-16T12:19:43.277Z,70.45
2023-02-16T12:22:17.987Z,70.34
2023-02-16T12:24:44.344Z,71.67
2023-02-16T12:27:21.864Z,71.33
2023-02-16T12:30:11.419Z,71.36
2023-02-16T12:32:45.196Z,70.97
2023-02-16T12:35:12.621Z,70.99
2023-02-16T12:38:03.463Z,70.35
2023-02-16T12:41:07.450Z,70.23
2023-02-16T12:43:45.140Z,68.72
2023-02-16T12:46:17.567Z,68.89
2023-02-16T12:48:53.870Z,67.30
2023-02-16T12:51:32.524Z,65.92
2023-02-16T12:54:07.752Z,63.97
2023-02-16T12:56:47.662Z,63.05
2023-02-16T12:59:26.111Z,62.08
2023-02-16T13:01:55.226Z,63.62
2023-02-16T13:04:36.077Z,64.28
2023-02-16T13:07:17.903Z,64.66
2023-02-16T13:09:53.478Z,65.32
2023-02-16T13:12:36.456Z,64.89
2023-02-16T13:15:16.854Z,65.68
2023-02-16T13:17:49.819Z,65.27
2023-02-16T13:20:21.110Z,65.44
2023-02-16T13:23:24.733Z,64.78
2023-02-16T13:25:57.883Z,66.45
2023-02-16T13:28:51.753Z,65.69
2023-02-16T13:31:49.492Z,65.02
2023-02-16T13:34:43.829Z,63.91
2023-02-16T13:37:40.212Z,64.00
2023-02-16T13:40:29.100Z,62.74
2023-02-16T13:43:41.944Z,61.86
2023-02-16T13:46:17.005Z,62.67
2023-02-16T13:49:11.056Z,61.89
2023-02-16T13:51:44.567Z,62.09
2023-02-16T13:54:26.887Z,61.73
2023-02-16T13:56:54.335Z,62.07
2023-02-16T13:59:21.076Z,62.14
2023-02-16T14:01:50.535Z,62.54
2023-02-16T14:04:23.012Z,63.44
2023-02-16T14:06:51.920Z,63.60
2023-02-16T14:09:19.250Z,62.34
2023-02-16T14:11:54.867Z,63.34
2023-02-16T14:14:42.680Z,62.88
2023-02-16T14:17:16.145Z,63.21
2023-02-16T14:19:58.763Z,63.71
2023-02-16T14:22:48.606Z,64.83
2023-02-16T14:25:22.153Z,64.24
2023-02-16T14:28:00.211Z,63.77
2023-02-16T14:30:34.795Z,64.57
2023-02-16T14:33:12.355Z,62.98
2023-02-16T14:35:42.564Z,63.15
2023-02-16T14:38:48.525Z,62.89
2023-02-16T14:41:36.315Z,63.07
2023-02-16T14:44:05.859Z,64.98
2023-02-16T14:47:08.279Z,62.88
2023-02-16T14:49:57.940Z,62.63
2023-02-16T14:52:48.915Z,63.59
2023-02-16T14:55:24.334Z,62.55
2023-02-16T14:57:53.207Z,62.26
2023-02-16T15:00:43.605Z,61.87
2023-02-16T15:03:25.112Z,62.64
2023-02-16T15:06:00.047Z,62.15
2023-02-16T15:08:48.592Z,61.24
2023-02-16T15:11:25.454Z,61.58
2023-02-16T15:13:53.405Z,61.16
2023-02-16T15:16:22.458Z,61.13
2023-02-16T15:18:52.751Z,61.18
2023-02-16T15:21:30.580Z,61.02
2023-02-16T15:24:01.393Z,60.97
2023-02-16T15:26:34.653Z,60.00
2023-02-16T15:29:13.328Z,60.50
2023-02-16T15:31:40.107Z,60.99
2023-02-16T15:34:11.869Z,61.17
2023-02-16T15:36:42.659Z,61.00
2023-02-16T15:39:15.174Z,60.58
2023-02-16T15:41:46.333Z,60.08
2023-02-16T15:44:34.460Z,59.78
2023-02-16T15:47:16.461Z,60.20
2023-02-16T15:49:43.649Z,60.47
2023-02-16T15:52:16.892Z,59.53
2023-02-16T15:54:44.951Z,59.71
2023-02-16T15:57:30.952Z,58.89
2023-02-16T16:00:03.982Z,58.89
2023-02-16T16:02:38.292Z,58.78
2023-02-16T16:05:06.725Z,58.81
2023-02-16T16:07:37.124Z,59.09
2023-02-16T16:10:15.444Z,59.96
2023-02-16T16:12:42.388Z,59.90
2023-02-16T16:15:17.494Z,60.18
2023-02-16T16:17:44.171Z,60.19
2023-02-16T16:20:32.318Z,60.01
2023-02-16T16:23:20.242Z,59.81
2023-02-16T16:25:48.620Z,60.32
2023-02-16T16:28:34.246Z,60.47
2023-02-16T16:31:12.770Z,60.55
2023-02-16T16:33:55.200Z,60.20
2023-02-16T16:36:54.636Z,60.68
2023-02-16T16:39:28.378Z,60.88
2023-02-16T16:41:57.628Z,61.38
2023-02-16T16:44:39.650Z,61.19
2023-02-16T16:47:22.681Z,60.79
2023-02-16T16:49:56.727Z,60.60
2023-02-16T16:52:36.146Z,61.19
2023-02-16T16:55:20.231Z,61.69
2023-02-16T16:57:48.546Z,62.10
2023-02-16T17:00:15.995Z,61.90
2023-02-16T17:02:42.397Z,62.51
2023-02-16T17:05:08.850Z,62.51
2023-02-16T17:07:35.357Z,62.39
2023-02-16T17:10:01.887Z,63.16
2023-02-16T17:12:29.377Z,62.84
2023-02-16T17:14:56.202Z,62.88
2023-02-16T17:17:22.940Z,62.86
2023-02-16T17:19:49.372Z,62.76
2023-02-16T17:22:17.948Z,62.62
2023-02-16T17:24:44.839Z,62.72
2023-02-16T17:27:11.688Z,62.87
2023-02-16T17:29:38.341Z,62.96
2023-02-16T17:32:10.902Z,63.06
2023-02-16T17:34:37.370Z,63.43
2023-02-16T17:37:09.108Z,63.72
2023-02-16T17:39:35.960Z,63.99
2023-02-16T17:42:02.486Z,64.20
2023-02-16T17:44:29.595Z,64.36
2023-02-16T17:46:56.302Z,64.95
2023-02-16T17:49:22.725Z,65.89
2023-02-16T17:51:49.101Z,67.86
2023-02-16T17:54:16.076Z,68.31
2023-02-16T17:56:45.288Z,68.02
2023-02-16T17:59:15.201Z,68.01
2023-02-16T18:01:43.068Z,67.62
2023-02-16T18:04:12.254Z,67.38
2023-02-16T18:06:38.831Z,66.93
2023-02-16T18:09:05.565Z,68.22
2023-02-16T18:11:32.169Z,68.48
2023-02-16T18:13:58.599Z,70.22
2023-02-16T18:16:27.260Z,70.32
2023-02-16T18:18:53.940Z,69.87
2023-02-16T18:21:20.593Z,69.75
2023-02-16T18:23:47.536Z,70.52
2023-02-16T18:26:15.804Z,71.79
2023-02-16T18:28:42.487Z,72.06
2023-02-16T18:31:09.636Z,72.02
2023-02-16T18:33:36.438Z,71.42
2023-02-16T18:36:03.717Z,70.39
2023-02-16T18:38:30.885Z,69.32
2023-02-16T18:40:57.521Z,71.48
2023-02-16T18:43:24.273Z,73.09
2023-02-16T18:45:50.752Z,72.24
2023-02-16T18:48:17.553Z,74.49
2023-02-16T18:50:44.001Z,76.29
2023-02-16T18:53:10.319Z,76.37
2023-02-16T18:55:36.961Z,76.41
2023-02-16T18:58:07.718Z,76.17
2023-02-16T19:00:35.397Z,76.29
2023-02-16T19:03:02.559Z,75.88
2023-02-16T19:05:32.790Z,73.55
2023-02-16T19:07:59.421Z,73.63
2023-02-16T19:10:26.240Z,73.49
2023-02-16T19:12:52.891Z,74.13
2023-02-16T19:15:19.453Z,74.76
2023-02-16T19:17:45.869Z,74.74
2023-02-16T19:20:16.762Z,73.73
2023-02-16T19:23:02.547Z,73.19
2023-02-16T19:25:29.325Z,73.62
2023-02-16T19:27:55.851Z,73.22
2023-02-16T19:30:24.179Z,73.18
2023-02-16T19:32:50.697Z,73.06
2023-02-16T19:35:17.781Z,73.09
2023-02-16T19:37:44.195Z,73.09
2023-02-16T19:40:11.535Z,73.42
2023-02-16T19:42:38.699Z,72.99
2023-02-16T19:45:07.896Z,72.43
2023-02-16T19:47:34.381Z,72.31
2023-02-16T19:50:01.988Z,72.70
2023-02-16T19:52:28.463Z,74.09
2023-02-16T19:54:54.935Z,73.26
2023-02-16T19:57:21.335Z,72.76
2023-02-16T19:59:47.811Z,73.88
2023-02-16T20:02:15.420Z,73.53
2023-02-16T20:04:45.334Z,72.94
2023-02-16T20:07:11.763Z,73.87
2023-02-16T20:09:38.846Z,74.81
2023-02-16T20:12:05.724Z,74.77
2023-02-16T20:14:32.514Z,74.50
2023-02-16T20:16:59.031Z,75.62
2023-02-16T20:19:27.959Z,74.54
2023-02-16T20:21:54.601Z,76.27
2023-02-16T20:24:21.284Z,76.54
2023-02-16T20:26:49.167Z,76.74
2023-02-16T20:29:18.502Z,77.21
2023-02-16T20:31:53.676Z,78.18
2023-02-16T20:34:27.353Z,77.88
2023-02-16T20:36:54.436Z,77.72
2023-02-16T20:39:24.583Z,78.71
2023-02-16T20:41:51.284Z,78.20
2023-02-16T20:44:18.089Z,77.69
2023-02-16T20:46:45.015Z,77.01
2023-02-16T20:49:13.706Z,76.28
2023-02-16T20:51:43.712Z,75.96
2023-02-16T20:54:11.882Z,75.04
2023-02-16T20:56:39.369Z,76.93
2023-02-16T20:59:06.014Z,76.65
2023-02-16T21:01:37.295Z,75.90
2023-02-16T21:04:05.116Z,76.52
2023-02-16T21:06:31.515Z,75.57
2023-02-16T21:09:00.991Z,76.77
2023-02-16T21:11:33.663Z,75.28
2023-02-16T21:14:02.922Z,76.63
2023-02-16T21:16:29.681Z,76.90
2023-02-16T21:18:56.573Z,76.28
2023-02-16T21:21:23.588Z,75.99
2023-02-16T21:23:53.882Z,75.27
2023-02-16T21:26:22.355Z,74.29
2023-02-16T21:28:49.710Z,76.50
2023-02-16T21:31:22.842Z,75.80
2023-02-16T21:33:49.529Z,77.17
2023-02-16T21:36:19.267Z,77.11
2023-02-16T21:38:46.207Z,78.39
2023-02-16T21:41:25.690Z,78.35
2023-02-16T21:44:06.897Z,77.47
2023-02-16T21:46:41.741Z,77.02
2023-02-16T21:49:17.196Z,77.61
2023-02-16T21:51:44.795Z,78.55
2023-02-16T21:54:14.527Z,79.09
2023-02-16T21:56:43.729Z,78.74
2023-02-16T21:59:13.010Z,75.93
2023-02-16T22:01:45.819Z,77.04
2023-02-16T22:04:16.050Z,77.26
2023-02-16T22:06:45.917Z,76.93
2023-02-16T22:09:17.759Z,77.16
2023-02-16T22:11:45.638Z,77.14
2023-02-16T22:14:12.602Z,75.76
2023-02-16T22:16:39.296Z,76.85
2023-02-16T22:19:08.548Z,77.37
2023-02-16T22:21:38.618Z,75.88
2023-02-16T22:24:05.825Z,77.17
2023-02-16T22:26:34.509Z,75.95
2023-02-16T22:29:06.214Z,76.41
2023-02-16T22:31:33.092Z,76.84
2023-02-16T22:34:08.142Z,77.03
2023-02-16T22:36:37.500Z,77.11
2023-02-16T22:39:04.880Z,77.60
2023-02-16T22:41:31.328Z,77.20
2023-02-16T22:44:00.193Z,76.85
2023-02-16T22:46:28.329Z,77.95
2023-02-16T22:48:56.007Z,77.34
2023-02-16T22:51:22.565Z,76.39
2023-02-16T22:53:50.195Z,76.99
2023-02-16T22:56:18.187Z,76.61
2023-02-16T22:58:44.763Z,76.75
2023-02-16T23:01:17.694Z,78.47
2023-02-16T23:03:47.464Z,78.74
2023-02-16T23:06:15.735Z,77.91
2023-02-16T23:08:43.086Z,77.19
2023-02-16T23:11:10.477Z,76.86
2023-02-16T23:13:37.355Z,77.28
2023-02-16T23:16:07.110Z,76.59
2023-02-16T23:18:34.217Z,77.29
2023-02-16T23:21:18.899Z,77.89
2023-02-16T23:23:45.595Z,76.74
2023-02-16T23:26:12.278Z,76.90
2023-02-16T23:28:40.305Z,77.67
2023-02-16T23:31:07.117Z,77.00
2023-02-16T23:33:33.618Z,77.34
2023-02-16T23:36:00.128Z,76.30
2023-02-16T23:38:26.592Z,77.03
2023-02-16T23:41:07.636Z,76.78
2023-02-16T23:43:34.310Z,76.78
2023-02-16T23:46:03.002Z,76.77
2023-02-16T23:48:30.422Z,76.23
2023-02-16T23:50:57.079Z,76.35
2023-02-16T23:53:25.462Z,76.88
2023-02-16T23:55:58.985Z,77.75
2023-02-16T23:58:30.511Z,75.70
